Time;durP1;ratioP1;P1;durP2;ratioP2;P2;SDS_P1;SDS_P2;PMS_P1;PMS_P2;Temp;Humidity;BMP_temperature;BMP_pressure;BME280_temperature;BME280_humidity;BME280_pressure;Samples;Min_cycle;Max_cycle;Signal;HPM_P1;HPM_P2
2022/07/20 00:00:06;;;;;;;8.93;5.18;;;;;;;;;;5055428;28;20273;-46
2022/07/20 00:02:55;;;;;;;7.65;4.60;;;;;;;;;;5055815;28;20207;-47
2022/07/20 00:05:22;;;;;;;7.15;5.18;;;;;;;;;;5055505;28;20281;-47
2022/07/20 00:07:49;;;;;;;10.25;4.75;;;;;;;;;;5055326;28;20204;-46
2022/07/20 00:13:02;;;;;;;10.55;5.55;;;;;;;;;;5055402;28;20212;-47
2022/07/20 00:15:29;;;;;;;11.10;5.85;;;;;;;;;;5055951;28;20200;-47
2022/07/20 00:17:56;;;;;;;9.35;4.50;;;;;;;;;;5055204;28;20204;-46
2022/07/20 00:20:24;;;;;;;7.47;4.97;;;;;;;;;;5055410;28;20584;-47
2022/07/20 00:22:51;;;;;;;8.95;5.38;;;;;;;;;;5054908;28;20210;-46
2022/07/20 00:25:18;;;;;;;16.52;5.45;;;;;;;;;;5055121;28;20511;-46
2022/07/20 00:27:45;;;;;;;11.07;6.10;;;;;;;;;;5055142;28;20204;-48
2022/07/20 00:30:12;;;;;;;9.27;5.35;;;;;;;;;;5055297;28;20214;-47
2022/07/20 00:32:40;;;;;;;12.45;5.75;;;;;;;;;;5055667;28;20208;-47
2022/07/20 00:35:09;;;;;;;8.80;4.93;;;;;;;;;;5055146;28;20211;-48
2022/07/20 00:37:39;;;;;;;8.32;5.50;;;;;;;;;;5055069;28;20519;-47
2022/07/20 00:40:07;;;;;;;10.27;6.03;;;;;;;;;;5054806;28;20290;-49
2022/07/20 00:42:35;;;;;;;8.52;6.10;;;;;;;;;;5055124;28;20242;-47
2022/07/20 00:45:03;;;;;;;10.70;5.93;;;;;;;;;;5054972;28;20200;-49
2022/07/20 00:47:30;;;;;;;10.23;6.15;;;;;;;;;;5075180;28;20203;-51
2022/07/20 00:49:58;;;;;;;12.05;6.18;;;;;;;;;;5075099;28;20195;-47
2022/07/20 00:52:25;;;;;;;13.10;6.57;;;;;;;;;;5074789;28;20214;-46
2022/07/20 00:54:53;;;;;;;10.85;5.97;;;;;;;;;;5075202;28;20272;-48
2022/07/20 00:57:20;;;;;;;9.93;6.47;;;;;;;;;;5075262;28;20269;-48
2022/07/20 00:59:47;;;;;;;13.50;6.30;;;;;;;;;;5074710;28;20268;-47
2022/07/20 01:02:14;;;;;;;11.30;6.00;;;;;;;;;;5075081;28;20214;-46
2022/07/20 01:04:42;;;;;;;8.55;5.70;;;;;;;;;;5074534;28;20207;-48
2022/07/20 01:07:08;;;;;;;11.43;5.63;;;;;;;;;;5075602;28;20207;-47
2022/07/20 01:09:35;;;;;;;9.02;6.20;;;;;;;;;;5074575;28;20214;-46
2022/07/20 01:12:03;;;;;;;12.77;6.30;;;;;;;;;;5074725;28;20218;-47
2022/07/20 01:14:30;;;;;;;10.63;6.00;;;;;;;;;;5074513;28;20209;-47
2022/07/20 01:16:57;;;;;;;9.27;6.35;;;;;;;;;;5074678;28;20260;-47
2022/07/20 01:19:24;;;;;;;9.32;5.38;;;;;;;;;;5074365;28;20210;-47
2022/07/20 01:21:51;;;;;;;11.82;5.53;;;;;;;;;;5074708;28;20567;-48
2022/07/20 01:24:18;;;;;;;12.00;5.53;;;;;;;;;;5074520;28;20616;-46
2022/07/20 01:26:45;;;;;;;8.32;5.25;;;;;;;;;;5074339;28;20653;-46
2022/07/20 01:29:14;;;;;;;8.75;5.28;;;;;;;;;;5074621;28;20205;-47
2022/07/20 01:31:41;;;;;;;10.63;5.07;;;;;;;;;;5074631;28;20207;-46
2022/07/20 01:34:09;;;;;;;8.75;5.38;;;;;;;;;;5074600;28;20262;-46
2022/07/20 01:36:36;;;;;;;8.57;5.00;;;;;;;;;;5078597;28;20261;-47
2022/07/20 01:39:03;;;;;;;9.15;5.63;;;;;;;;;;5078347;28;20208;-46
2022/07/20 01:41:30;;;;;;;9.85;5.47;;;;;;;;;;5078251;28;20227;-47
2022/07/20 01:43:57;;;;;;;9.20;5.38;;;;;;;;;;5078659;28;20215;-46
2022/07/20 01:46:24;;;;;;;10.43;5.38;;;;;;;;;;5078349;28;20250;-46
2022/07/20 01:48:52;;;;;;;9.88;5.28;;;;;;;;;;5078115;28;20630;-50
2022/07/20 01:51:19;;;;;;;8.98;5.43;;;;;;;;;;5077967;28;20298;-47
2022/07/20 01:53:46;;;;;;;9.65;6.05;;;;;;;;;;5078118;28;20207;-50
2022/07/20 01:56:13;;;;;;;15.52;6.32;;;;;;;;;;5077966;28;20569;-47
2022/07/20 01:58:40;;;;;;;11.40;6.47;;;;;;;;;;5078011;28;20203;-47
2022/07/20 02:01:08;;;;;;;9.52;6.05;;;;;;;;;;5077754;28;20227;-46
2022/07/20 02:03:37;;;;;;;14.48;6.85;;;;;;;;;;5078054;28;20229;-48
2022/07/20 02:06:04;;;;;;;9.40;6.35;;;;;;;;;;5077673;28;20200;-47
2022/07/20 02:08:31;;;;;;;11.75;6.05;;;;;;;;;;5077890;28;20195;-48
2022/07/20 02:10:59;;;;;;;12.82;6.60;;;;;;;;;;5077427;28;20264;-46
2022/07/20 02:13:26;;;;;;;13.75;6.93;;;;;;;;;;5077329;28;20207;-46
2022/07/20 02:18:38;;;;;;;11.75;6.88;;;;;;;;;;5077623;28;20195;-46
2022/07/20 02:21:05;;;;;;;11.63;7.18;;;;;;;;;;5077175;28;20661;-46
2022/07/20 02:23:32;;;;;;;12.05;7.47;;;;;;;;;;5077220;28;20250;-47
2022/07/20 02:25:59;;;;;;;10.98;6.65;;;;;;;;;;5077188;28;20199;-46
2022/07/20 02:28:26;;;;;;;12.10;7.00;;;;;;;;;;5077097;28;20282;-46
2022/07/20 02:30:53;;;;;;;13.23;7.15;;;;;;;;;;5077391;28;20214;-46
2022/07/20 02:33:21;;;;;;;15.77;7.57;;;;;;;;;;5077384;28;20210;-46
2022/07/20 02:35:48;;;;;;;11.35;7.22;;;;;;;;;;5076998;28;20203;-46
2022/07/20 02:38:15;;;;;;;14.60;7.63;;;;;;;;;;5076831;28;20227;-47
2022/07/20 02:40:42;;;;;;;15.75;7.53;;;;;;;;;;5077198;28;20231;-48
2022/07/20 02:43:09;;;;;;;12.55;6.95;;;;;;;;;;5077089;28;20614;-46
2022/07/20 02:45:36;;;;;;;9.45;6.57;;;;;;;;;;5076847;28;20203;-47
2022/07/20 02:48:04;;;;;;;11.85;7.72;;;;;;;;;;5076104;28;20204;-46
2022/07/20 02:50:33;;;;;;;11.13;7.38;;;;;;;;;;5076814;28;20581;-46
2022/07/20 02:53:01;;;;;;;17.05;7.88;;;;;;;;;;5076801;28;20194;-46
2022/07/20 02:55:28;;;;;;;12.02;7.63;;;;;;;;;;5076410;28;20219;-47
2022/07/20 02:57:55;;;;;;;15.93;7.72;;;;;;;;;;5076618;28;20629;-46
2022/07/20 03:00:22;;;;;;;13.07;7.97;;;;;;;;;;5076650;28;20211;-47
2022/07/20 03:02:50;;;;;;;17.90;8.57;;;;;;;;;;5076711;28;20203;-47
2022/07/20 03:05:17;;;;;;;21.92;8.23;;;;;;;;;;5076695;28;20206;-46
2022/07/20 03:07:44;;;;;;;15.10;9.07;;;;;;;;;;5076709;28;20195;-47
2022/07/20 03:10:12;;;;;;;16.98;9.68;;;;;;;;;;5076675;28;20203;-46
2022/07/20 03:12:39;;;;;;;15.55;8.90;;;;;;;;;;5076805;28;20203;-46
2022/07/20 03:15:07;;;;;;;14.82;9.63;;;;;;;;;;5076618;28;20196;-46
2022/07/20 03:17:45;;;;;;;18.05;8.50;;;;;;;;;;5076690;28;20203;-46
2022/07/20 03:20:14;;;;;;;16.98;8.95;;;;;;;;;;5076629;28;20222;-47
2022/07/20 03:22:41;;;;;;;17.13;8.77;;;;;;;;;;5076554;28;20203;-46
2022/07/20 03:25:09;;;;;;;16.98;8.95;;;;;;;;;;5077081;28;20212;-46
2022/07/20 03:27:37;;;;;;;18.08;9.05;;;;;;;;;;5076796;28;20226;-46
2022/07/20 03:30:05;;;;;;;13.90;9.20;;;;;;;;;;5076302;28;20199;-48
2022/07/20 03:32:32;;;;;;;17.70;9.10;;;;;;;;;;5075607;28;20203;-48
2022/07/20 03:34:59;;;;;;;15.50;7.95;;;;;;;;;;5076060;28;20206;-46
2022/07/20 03:37:27;;;;;;;14.07;7.68;;;;;;;;;;5076267;28;20213;-46
2022/07/20 03:39:54;;;;;;;11.57;8.07;;;;;;;;;;5075972;28;20369;-47
2022/07/20 03:42:21;;;;;;;17.30;7.95;;;;;;;;;;5075806;28;20262;-48
2022/07/20 03:44:48;;;;;;;17.52;8.07;;;;;;;;;;5076301;28;20214;-46
2022/07/20 03:47:15;;;;;;;14.73;7.97;;;;;;;;;;5075867;28;20200;-46
2022/07/20 03:49:42;;;;;;;15.63;8.05;;;;;;;;;;5073365;28;20264;-48
2022/07/20 03:52:10;;;;;;;12.73;8.40;;;;;;;;;;5060029;28;20592;-46
2022/07/20 03:54:37;;;;;;;15.77;8.00;;;;;;;;;;5055881;28;20200;-46
2022/07/20 03:57:04;;;;;;;13.70;8.68;;;;;;;;;;5069180;28;20234;-46
2022/07/20 03:59:33;;;;;;;16.40;8.10;;;;;;;;;;5075916;28;20261;-48
2022/07/20 04:02:00;;;;;;;17.25;8.77;;;;;;;;;;5075294;28;20249;-46
2022/07/20 04:04:28;;;;;;;16.05;8.27;;;;;;;;;;5068634;28;20212;-48
2022/07/20 04:06:55;;;;;;;13.98;8.70;;;;;;;;;;5074809;28;20226;-49
2022/07/20 04:12:15;;;;;;;13.25;8.60;;;;;;;;;;5074722;28;20223;-47
2022/07/20 04:14:43;;;;;;;16.40;9.15;;;;;;;;;;5074118;28;20243;-51
2022/07/20 04:17:10;;;;;;;14.23;8.75;;;;;;;;;;5077345;28;20219;-49
2022/07/20 04:19:38;;;;;;;14.57;9.40;;;;;;;;;;5075230;28;20212;-46
2022/07/20 04:22:05;;;;;;;17.70;9.95;;;;;;;;;;5064142;28;20239;-47
2022/07/20 04:24:32;;;;;;;15.57;9.40;;;;;;;;;;5060935;28;20235;-50
2022/07/20 04:26:59;;;;;;;20.95;10.02;;;;;;;;;;5054424;28;20215;-46
2022/07/20 04:29:26;;;;;;;17.15;10.65;;;;;;;;;;5077861;28;20210;-48
2022/07/20 04:31:54;;;;;;;17.77;9.80;;;;;;;;;;5080188;28;20294;-47
2022/07/20 04:34:21;;;;;;;14.10;9.70;;;;;;;;;;5083909;28;20211;-47
2022/07/20 04:36:48;;;;;;;14.30;10.02;;;;;;;;;;5073979;28;20223;-47
2022/07/20 04:39:15;;;;;;;18.85;10.20;;;;;;;;;;5074254;28;20227;-47
2022/07/20 04:41:42;;;;;;;17.30;10.18;;;;;;;;;;5079233;28;20242;-47
2022/07/20 04:44:09;;;;;;;18.20;10.45;;;;;;;;;;5078800;28;20223;-50
2022/07/20 04:46:37;;;;;;;20.48;10.48;;;;;;;;;;5082103;28;20227;-47
2022/07/20 04:49:04;;;;;;;17.77;10.05;;;;;;;;;;5074051;28;20235;-51
2022/07/20 04:51:31;;;;;;;15.77;9.85;;;;;;;;;;5074007;28;20219;-47
2022/07/20 04:53:58;;;;;;;17.80;10.52;;;;;;;;;;5073837;28;20231;-47
2022/07/20 04:56:25;;;;;;;18.40;10.13;;;;;;;;;;5072279;28;20231;-48
2022/07/20 04:58:54;;;;;;;19.00;10.18;;;;;;;;;;5072125;28;20265;-48
2022/07/20 05:01:23;;;;;;;17.33;9.82;;;;;;;;;;5074378;28;20231;-47
2022/07/20 05:03:50;;;;;;;16.90;9.25;;;;;;;;;;5074360;28;20629;-47
2022/07/20 05:06:18;;;;;;;12.38;9.13;;;;;;;;;;5067322;28;20229;-47
2022/07/20 05:08:45;;;;;;;13.07;8.32;;;;;;;;;;5073282;28;20253;-48
2022/07/20 05:11:13;;;;;;;15.85;9.02;;;;;;;;;;5072975;28;20247;-50
2022/07/20 05:13:40;;;;;;;16.65;8.80;;;;;;;;;;5073610;28;20273;-49
2022/07/20 05:16:09;;;;;;;14.27;8.30;;;;;;;;;;5073557;28;20230;-48
2022/07/20 05:18:36;;;;;;;14.93;8.30;;;;;;;;;;5069656;28;20322;-53
2022/07/20 05:21:04;;;;;;;13.50;7.93;;;;;;;;;;5070777;28;20226;-54
2022/07/20 05:23:31;;;;;;;15.60;8.15;;;;;;;;;;5072419;28;20239;-54
2022/07/20 05:25:58;;;;;;;13.38;8.00;;;;;;;;;;5073304;28;20228;-56
2022/07/20 05:28:25;;;;;;;12.55;7.55;;;;;;;;;;5073182;28;20234;-52
2022/07/20 05:30:53;;;;;;;13.82;7.90;;;;;;;;;;5073475;28;20232;-53
2022/07/20 05:33:20;;;;;;;16.50;7.93;;;;;;;;;;5073133;28;20656;-55
2022/07/20 05:35:49;;;;;;;10.48;7.43;;;;;;;;;;5073334;28;20223;-54
2022/07/20 05:38:17;;;;;;;15.68;7.68;;;;;;;;;;5082719;28;20215;-54
2022/07/20 05:40:46;;;;;;;15.55;8.10;;;;;;;;;;5084026;28;20246;-54
2022/07/20 05:43:13;;;;;;;12.80;7.60;;;;;;;;;;5088162;28;20260;-54
2022/07/20 05:45:40;;;;;;;16.20;7.10;;;;;;;;;;5093917;28;20226;-55
2022/07/20 05:48:16;;;;;;;12.00;7.05;;;;;;;;;;5093245;28;20235;-53
2022/07/20 05:50:44;;;;;;;17.40;7.15;;;;;;;;;;5093547;28;20296;-54
2022/07/20 05:53:12;;;;;;;17.15;7.63;;;;;;;;;;5083576;28;20239;-52
2022/07/20 05:55:41;;;;;;;17.50;7.03;;;;;;;;;;5082949;28;20291;-49
2022/07/20 05:58:10;;;;;;;15.00;7.15;;;;;;;;;;5081217;28;20668;-49
2022/07/20 06:00:37;;;;;;;12.52;6.65;;;;;;;;;;5083328;28;20227;-50
2022/07/20 06:03:05;;;;;;;11.32;6.97;;;;;;;;;;5083684;28;20227;-57
2022/07/20 06:05:32;;;;;;;15.05;7.20;;;;;;;;;;5078724;28;20224;-55
2022/07/20 06:08:00;;;;;;;11.10;6.55;;;;;;;;;;5083033;28;20300;-57
2022/07/20 06:10:29;;;;;;;10.02;6.50;;;;;;;;;;5082023;28;20305;-55
2022/07/20 06:12:57;;;;;;;15.55;7.20;;;;;;;;;;5083196;28;20233;-57
2022/07/20 06:15:25;;;;;;;9.65;6.28;;;;;;;;;;5084214;28;20298;-57
2022/07/20 06:17:53;;;;;;;13.82;6.43;;;;;;;;;;5080143;28;20215;-56
2022/07/20 06:20:22;;;;;;;14.05;5.65;;;;;;;;;;5081601;28;20741;-57
2022/07/20 06:22:49;;;;;;;10.23;6.38;;;;;;;;;;5086380;28;20225;-56
2022/07/20 06:25:18;;;;;;;9.48;5.78;;;;;;;;;;5085815;28;20302;-56
2022/07/20 06:27:45;;;;;;;8.68;5.82;;;;;;;;;;5085386;28;20506;-55
2022/07/20 06:30:13;;;;;;;13.05;5.80;;;;;;;;;;5086706;28;20222;-57
2022/07/20 06:32:40;;;;;;;11.77;5.75;;;;;;;;;;5086427;28;20548;-57
2022/07/20 06:35:08;;;;;;;12.40;6.30;;;;;;;;;;5084417;28;20236;-57
2022/07/20 06:37:36;;;;;;;11.02;5.28;;;;;;;;;;5086633;28;20219;-57
2022/07/20 06:40:03;;;;;;;11.32;5.55;;;;;;;;;;5086629;28;20262;-56
2022/07/20 06:42:31;;;;;;;8.93;5.03;;;;;;;;;;5082640;28;20239;-57
2022/07/20 06:44:58;;;;;;;9.25;4.85;;;;;;;;;;5085952;28;20246;-57
2022/07/20 06:47:25;;;;;;;13.02;5.07;;;;;;;;;;5087788;28;20206;-55
2022/07/20 06:49:52;;;;;;;16.30;5.65;;;;;;;;;;5085880;28;20573;-57
2022/07/20 06:52:20;;;;;;;10.85;5.30;;;;;;;;;;5086558;28;20206;-57
2022/07/20 06:54:47;;;;;;;9.68;4.72;;;;;;;;;;5083336;28;20198;-55
2022/07/20 06:57:14;;;;;;;10.55;4.72;;;;;;;;;;5086389;28;20230;-54
2022/07/20 06:59:41;;;;;;;7.30;4.40;;;;;;;;;;5087694;28;20191;-55
2022/07/20 07:02:09;;;;;;;11.40;4.53;;;;;;;;;;5085903;28;20218;-55
2022/07/20 07:04:36;;;;;;;6.40;4.32;;;;;;;;;;5085889;28;20202;-54
2022/07/20 07:07:03;;;;;;;8.65;4.53;;;;;;;;;;5087134;28;20510;-54
2022/07/20 07:09:30;;;;;;;8.18;3.70;;;;;;;;;;5085805;28;20610;-54
2022/07/20 07:11:57;;;;;;;6.00;3.95;;;;;;;;;;5085733;28;20199;-54
2022/07/20 07:14:25;;;;;;;9.13;4.00;;;;;;;;;;5079335;28;20224;-52
2022/07/20 07:16:53;;;;;;;8.35;4.20;;;;;;;;;;5081334;28;20614;-52
2022/07/20 07:19:21;;;;;;;10.00;3.90;;;;;;;;;;5081041;28;20237;-57
2022/07/20 07:21:48;;;;;;;10.05;4.43;;;;;;;;;;5086463;28;20238;-56
2022/07/20 07:24:15;;;;;;;7.95;4.15;;;;;;;;;;5086766;28;20556;-57
2022/07/20 07:26:43;;;;;;;10.68;5.07;;;;;;;;;;5086965;28;20207;-57
2022/07/20 07:29:10;;;;;;;7.22;4.32;;;;;;;;;;5085383;28;20223;-58
2022/07/20 07:31:37;;;;;;;11.95;4.30;;;;;;;;;;5085377;28;20203;-57
2022/07/20 07:34:04;;;;;;;5.97;3.67;;;;;;;;;;5086110;28;20557;-57
2022/07/20 07:36:31;;;;;;;7.53;4.07;;;;;;;;;;5085434;28;20574;-57
2022/07/20 07:38:58;;;;;;;8.00;3.80;;;;;;;;;;5085519;28;20203;-58
2022/07/20 07:41:26;;;;;;;4.38;3.22;;;;;;;;;;5086433;28;20527;-57
2022/07/20 07:43:53;;;;;;;7.63;4.30;;;;;;;;;;5085176;28;20691;-58
2022/07/20 07:46:20;;;;;;;11.75;4.15;;;;;;;;;;5084777;28;20192;-58
2022/07/20 07:48:48;;;;;;;6.93;3.30;;;;;;;;;;5081673;28;20199;-58
2022/07/20 07:51:16;;;;;;;4.90;3.65;;;;;;;;;;5084928;28;20566;-59
2022/07/20 07:53:44;;;;;;;7.78;4.05;;;;;;;;;;5077343;28;20194;-55
2022/07/20 07:56:12;;;;;;;5.57;3.25;;;;;;;;;;5083231;28;20226;-56
2022/07/20 07:58:39;;;;;;;9.23;3.50;;;;;;;;;;5084553;28;20205;-57
2022/07/20 08:01:06;;;;;;;8.73;3.67;;;;;;;;;;5083474;28;20207;-57
2022/07/20 08:03:33;;;;;;;4.18;3.10;;;;;;;;;;5084676;28;20210;-56
2022/07/20 08:06:00;;;;;;;9.77;3.45;;;;;;;;;;5085971;28;20214;-57
2022/07/20 08:08:27;;;;;;;8.18;4.03;;;;;;;;;;5083379;28;20203;-57
2022/07/20 08:10:55;;;;;;;6.80;3.42;;;;;;;;;;5085293;28;20453;-57
2022/07/20 08:13:22;;;;;;;4.07;2.85;;;;;;;;;;5084213;28;20209;-58
2022/07/20 08:15:49;;;;;;;7.22;3.33;;;;;;;;;;5084391;28;20258;-56
2022/07/20 08:18:18;;;;;;;7.13;3.45;;;;;;;;;;5083942;28;20524;-57
2022/07/20 08:20:45;;;;;;;8.85;3.53;;;;;;;;;;5080664;28;20205;-57
2022/07/20 08:23:13;;;;;;;5.90;3.65;;;;;;;;;;5084667;28;20211;-57
2022/07/20 08:25:40;;;;;;;5.70;3.28;;;;;;;;;;5081245;28;20562;-56
2022/07/20 08:28:13;;;;;;;6.10;3.28;;;;;;;;;;5094752;28;20230;-56
2022/07/20 08:30:41;;;;;;;6.35;3.45;;;;;;;;;;5085855;28;20292;-57
2022/07/20 08:33:21;;;;;;;5.78;3.60;;;;;;;;;;5080977;28;20223;-57
2022/07/20 08:35:48;;;;;;;5.05;3.50;;;;;;;;;;5085199;28;20283;-56
2022/07/20 08:38:15;;;;;;;4.30;3.45;;;;;;;;;;5083360;28;20250;-56
2022/07/20 08:40:43;;;;;;;4.85;3.80;;;;;;;;;;5082956;28;20280;-57
2022/07/20 08:43:10;;;;;;;8.43;3.38;;;;;;;;;;5081073;28;20232;-57
2022/07/20 08:45:37;;;;;;;7.28;3.53;;;;;;;;;;5081473;28;20238;-56
2022/07/20 08:48:10;;;;;;;6.05;3.28;;;;;;;;;;5082436;28;20219;-57
2022/07/20 08:50:37;;;;;;;5.53;3.30;;;;;;;;;;5083214;28;20264;-57
2022/07/20 08:53:05;;;;;;;6.05;3.50;;;;;;;;;;5084647;28;20222;-57
2022/07/20 08:55:33;;;;;;;5.20;3.53;;;;;;;;;;5082895;28;20288;-57
2022/07/20 08:58:00;;;;;;;5.32;3.40;;;;;;;;;;5082542;28;20643;-58
2022/07/20 09:00:27;;;;;;;10.23;3.50;;;;;;;;;;5080431;28;20329;-57
2022/07/20 09:03:02;;;;;;;6.80;3.22;;;;;;;;;;5083041;28;20668;-57
2022/07/20 09:05:36;;;;;;;4.00;3.17;;;;;;;;;;5079356;28;20573;-57
2022/07/20 09:08:04;;;;;;;6.03;3.08;;;;;;;;;;5082991;28;20195;-57
2022/07/20 09:10:34;;;;;;;6.07;3.13;;;;;;;;;;5080222;28;20549;-58
2022/07/20 09:13:02;;;;;;;6.03;3.30;;;;;;;;;;5083608;28;20204;-57
2022/07/20 09:15:47;;;;;;;8.45;3.30;;;;;;;;;;5085426;28;20195;-57
2022/07/20 09:18:25;;;;;;;5.43;3.67;;;;;;;;;;5081219;28;20187;-54
2022/07/20 09:21:07;;;;;;;4.65;2.90;;;;;;;;;;5080638;28;20522;-55
2022/07/20 09:23:40;;;;;;;4.05;2.92;;;;;;;;;;5081219;28;20214;-55
2022/07/20 09:26:14;;;;;;;7.68;3.40;;;;;;;;;;5084475;28;20191;-56
2022/07/20 09:28:46;;;;;;;7.18;3.25;;;;;;;;;;5083338;28;20202;-57
2022/07/20 09:31:19;;;;;;;5.20;3.08;;;;;;;;;;5083387;28;20187;-50
2022/07/20 09:33:57;;;;;;;6.38;3.75;;;;;;;;;;5082790;28;20191;-51
2022/07/20 09:36:26;;;;;;;4.10;3.00;;;;;;;;;;5081573;28;20203;-54
2022/07/20 09:38:54;;;;;;;4.53;3.20;;;;;;;;;;5083125;28;20199;-50
2022/07/20 09:41:30;;;;;;;5.45;2.88;;;;;;;;;;5079853;28;20215;-54
2022/07/20 09:43:59;;;;;;;5.30;3.60;;;;;;;;;;5080420;28;20214;-50
2022/07/20 09:46:32;;;;;;;5.05;2.88;;;;;;;;;;5078265;28;20199;-52
2022/07/20 09:49:03;;;;;;;6.63;3.40;;;;;;;;;;5082452;28;20214;-56
2022/07/20 09:51:38;;;;;;;4.40;2.92;;;;;;;;;;5079110;28;20210;-55
2022/07/20 09:54:11;;;;;;;6.13;3.40;;;;;;;;;;5085563;28;20203;-57
2022/07/20 09:56:43;;;;;;;4.60;3.40;;;;;;;;;;5086263;28;20288;-56
2022/07/20 09:59:11;;;;;;;6.88;3.63;;;;;;;;;;5092184;28;20536;-56
2022/07/20 10:01:40;;;;;;;4.43;2.95;;;;;;;;;;5091721;28;20263;-52
2022/07/20 10:04:11;;;;;;;6.55;2.95;;;;;;;;;;5087441;28;20302;-53
2022/07/20 10:06:42;;;;;;;7.18;3.17;;;;;;;;;;5087677;28;20179;-57
2022/07/20 10:09:11;;;;;;;5.18;3.38;;;;;;;;;;5092512;28;20200;-56
2022/07/20 10:11:38;;;;;;;5.65;3.20;;;;;;;;;;5085800;28;20613;-57
2022/07/20 10:14:05;;;;;;;3.63;3.15;;;;;;;;;;5080252;28;20539;-55
2022/07/20 10:16:48;;;;;;;4.80;3.03;;;;;;;;;;5087216;28;20628;-57
2022/07/20 10:19:15;;;;;;;6.10;3.00;;;;;;;;;;5086837;28;20218;-53
2022/07/20 10:21:50;;;;;;;4.90;2.78;;;;;;;;;;5088388;28;20207;-54
2022/07/20 10:24:25;;;;;;;3.80;3.00;;;;;;;;;;5085057;28;20230;-56
2022/07/20 10:27:16;;;;;;;3.88;2.92;;;;;;;;;;5087810;28;20196;-51
2022/07/20 10:29:47;;;;;;;4.30;2.95;;;;;;;;;;5084431;28;20194;-57
2022/07/20 10:32:20;;;;;;;6.45;2.63;;;;;;;;;;5087779;28;20191;-56
2022/07/20 10:34:50;;;;;;;3.80;2.90;;;;;;;;;;5091568;28;20202;-58
2022/07/20 10:37:20;;;;;;;4.10;2.78;;;;;;;;;;5097567;28;20198;-55
2022/07/20 10:39:47;;;;;;;5.88;2.85;;;;;;;;;;5096840;28;20656;-57
2022/07/20 10:42:20;;;;;;;3.22;2.45;;;;;;;;;;5057182;28;20200;-57
2022/07/20 10:44:47;;;;;;;4.47;2.67;;;;;;;;;;5059890;28;20729;-57
2022/07/20 10:47:49;;;;;;;7.45;2.80;;;;;;;;;;5075567;28;20219;-58
2022/07/20 10:50:24;;;;;;;4.93;2.70;;;;;;;;;;5064606;28;20684;-57
2022/07/20 10:52:53;;;;;;;5.78;2.92;;;;;;;;;;5075735;28;20241;-57
2022/07/20 10:55:32;;;;;;;5.20;2.97;;;;;;;;;;5074458;28;20227;-55
2022/07/20 10:58:27;;;;;;;5.80;2.83;;;;;;;;;;5075785;28;20716;-56
2022/07/20 11:00:55;;;;;;;6.05;2.55;;;;;;;;;;5064487;28;20239;-55
2022/07/20 11:03:29;;;;;;;6.82;2.58;;;;;;;;;;5076065;28;20690;-55
2022/07/20 11:06:15;;;;;;;3.00;2.70;;;;;;;;;;5075713;28;20676;-55
2022/07/20 11:08:48;;;;;;;4.00;2.55;;;;;;;;;;5075262;28;20292;-54
2022/07/20 11:11:18;;;;;;;5.15;2.35;;;;;;;;;;5075519;28;20565;-54
2022/07/20 11:13:46;;;;;;;8.75;2.60;;;;;;;;;;5075629;28;20708;-56
2022/07/20 11:16:13;;;;;;;6.60;2.42;;;;;;;;;;5073765;28;20230;-55
2022/07/20 11:18:41;;;;;;;3.25;2.72;;;;;;;;;;5076072;28;20220;-51
2022/07/20 11:21:09;;;;;;;2.90;2.40;;;;;;;;;;5075603;28;20284;-49
2022/07/20 11:23:48;;;;;;;7.25;3.05;;;;;;;;;;5075653;28;20239;-51
2022/07/20 11:26:20;;;;;;;3.65;2.65;;;;;;;;;;5075364;28;20288;-50
2022/07/20 11:28:55;;;;;;;2.95;2.47;;;;;;;;;;5075659;28;20230;-55
2022/07/20 11:31:26;;;;;;;8.15;2.50;;;;;;;;;;5073728;28;20754;-52
2022/07/20 11:33:54;;;;;;;4.38;2.45;;;;;;;;;;5075237;28;20310;-53
2022/07/20 11:36:24;;;;;;;5.78;2.83;;;;;;;;;;5075386;28;20253;-52
2022/07/20 11:38:59;;;;;;;5.43;2.95;;;;;;;;;;5075468;28;20223;-49
2022/07/20 11:41:29;;;;;;;4.57;2.60;;;;;;;;;;5076180;28;20198;-55
2022/07/20 11:43:57;;;;;;;3.45;2.47;;;;;;;;;;5076053;28;20219;-54
2022/07/20 11:46:29;;;;;;;3.55;2.50;;;;;;;;;;5075926;28;20207;-54
2022/07/20 11:48:58;;;;;;;6.63;2.70;;;;;;;;;;5076310;28;20223;-57
2022/07/20 11:51:55;;;;;;;2.90;2.47;;;;;;;;;;5076193;28;20203;-55
2022/07/20 11:54:27;;;;;;;4.43;2.55;;;;;;;;;;5074212;28;20262;-57
2022/07/20 11:56:55;;;;;;;6.20;2.35;;;;;;;;;;5075274;28;20222;-57
2022/07/20 11:59:23;;;;;;;4.03;2.35;;;;;;;;;;5075813;28;20203;-57
2022/07/20 12:01:55;;;;;;;5.50;2.45;;;;;;;;;;5075766;28;20610;-57
2022/07/20 12:04:23;;;;;;;4.22;2.30;;;;;;;;;;5075727;28;20211;-57
2022/07/20 12:06:53;;;;;;;4.63;2.60;;;;;;;;;;5074728;28;20222;-57
2022/07/20 12:09:33;;;;;;;5.05;2.45;;;;;;;;;;5075471;28;20188;-57
2022/07/20 12:12:06;;;;;;;4.93;2.63;;;;;;;;;;5074445;28;20257;-57
2022/07/20 12:14:41;;;;;;;4.57;2.40;;;;;;;;;;5075934;28;20195;-57
2022/07/20 12:17:26;;;;;;;5.68;2.70;;;;;;;;;;5075337;28;20214;-57
2022/07/20 12:19:56;;;;;;;6.15;3.03;;;;;;;;;;5075102;28;20195;-52
2022/07/20 12:22:29;;;;;;;5.78;3.03;;;;;;;;;;5071191;28;20199;-54
2022/07/20 12:25:06;;;;;;;7.28;2.92;;;;;;;;;;5055946;28;20728;-57
2022/07/20 12:27:36;;;;;;;5.43;3.10;;;;;;;;;;5063987;28;20219;-56
2022/07/20 12:30:23;;;;;;;6.30;2.83;;;;;;;;;;5073786;28;20223;-59
2022/07/20 12:33:11;;;;;;;4.28;2.92;;;;;;;;;;5075547;28;20237;-57
2022/07/20 12:35:41;;;;;;;4.05;2.85;;;;;;;;;;5072825;28;20231;-57
2022/07/20 12:38:08;;;;;;;5.45;3.03;;;;;;;;;;5074156;28;20234;-58
2022/07/20 12:40:46;;;;;;;5.03;2.55;;;;;;;;;;5075418;28;20219;-57
2022/07/20 12:43:33;;;;;;;4.60;3.10;;;;;;;;;;5077868;28;20230;-58
2022/07/20 12:46:07;;;;;;;5.03;3.00;;;;;;;;;;5082479;28;20218;-58
2022/07/20 12:48:40;;;;;;;8.50;2.80;;;;;;;;;;5079389;28;20223;-58
2022/07/20 12:51:10;;;;;;;3.83;3.08;;;;;;;;;;5082960;28;20219;-58
2022/07/20 12:53:38;;;;;;;4.15;2.67;;;;;;;;;;5081564;28;20226;-58
2022/07/20 12:56:12;;;;;;;5.25;2.83;;;;;;;;;;5080920;28;20543;-58
2022/07/20 12:58:41;;;;;;;3.60;2.50;;;;;;;;;;5074851;28;20661;-58
2022/07/20 13:01:08;;;;;;;5.38;2.55;;;;;;;;;;5082802;28;20669;-58
2022/07/20 13:03:35;;;;;;;5.25;2.80;;;;;;;;;;5084718;28;20218;-56
2022/07/20 13:06:03;;;;;;;5.70;2.28;;;;;;;;;;5082853;28;20613;-55
2022/07/20 13:08:32;;;;;;;5.45;2.95;;;;;;;;;;5083317;28;20226;-58
2022/07/20 13:11:01;;;;;;;4.88;2.58;;;;;;;;;;5083505;28;20273;-56
2022/07/20 13:13:28;;;;;;;3.80;2.70;;;;;;;;;;5081526;28;20277;-57
2022/07/20 13:15:55;;;;;;;3.95;2.70;;;;;;;;;;5073311;28;20227;-58
2022/07/20 13:18:22;;;;;;;3.75;2.58;;;;;;;;;;5073597;28;20234;-56
2022/07/20 13:20:50;;;;;;;8.80;3.00;;;;;;;;;;5073556;28;20238;-57
2022/07/20 13:23:18;;;;;;;3.80;2.75;;;;;;;;;;5073600;28;20243;-57
2022/07/20 13:25:45;;;;;;;8.20;2.58;;;;;;;;;;5073220;28;20235;-57
2022/07/20 13:28:14;;;;;;;7.15;2.67;;;;;;;;;;5073571;28;20223;-56
2022/07/20 13:30:50;;;;;;;6.18;2.55;;;;;;;;;;5074486;28;20767;-56
2022/07/20 13:33:17;;;;;;;6.68;2.50;;;;;;;;;;5077752;28;20234;-57
2022/07/20 13:35:44;;;;;;;4.03;2.78;;;;;;;;;;5077381;28;20218;-57
2022/07/20 13:38:11;;;;;;;3.90;2.40;;;;;;;;;;5077410;28;20226;-56
2022/07/20 13:40:40;;;;;;;4.43;2.35;;;;;;;;;;5088461;28;20238;-55
2022/07/20 13:43:07;;;;;;;5.63;2.55;;;;;;;;;;5097506;27;20226;-56
2022/07/20 13:45:34;;;;;;;6.15;2.53;;;;;;;;;;5091634;28;20227;-54
2022/07/20 13:48:03;;;;;;;3.45;2.75;;;;;;;;;;5086767;28;20257;-53
2022/07/20 13:50:30;;;;;;;4.88;2.55;;;;;;;;;;5087182;28;20195;-56
2022/07/20 13:53:18;;;;;;;5.03;2.92;;;;;;;;;;5086772;28;20187;-49
2022/07/20 13:55:49;;;;;;;12.50;3.33;;;;;;;;;;5083961;28;20254;-56
2022/07/20 13:58:18;;;;;;;4.65;2.80;;;;;;;;;;5076870;28;20271;-52
2022/07/20 14:00:45;;;;;;;4.30;2.80;;;;;;;;;;5083136;28;20225;-49
2022/07/20 14:03:12;;;;;;;4.88;2.70;;;;;;;;;;5085715;28;20238;-51
2022/07/20 14:05:40;;;;;;;3.25;2.40;;;;;;;;;;5089247;28;20220;-49
2022/07/20 14:08:07;;;;;;;2.60;2.15;;;;;;;;;;5097910;28;20226;-48
2022/07/20 14:10:35;;;;;;;2.92;2.40;;;;;;;;;;5084803;28;20218;-47
2022/07/20 14:13:02;;;;;;;6.18;2.90;;;;;;;;;;5076869;28;20238;-47
2022/07/20 14:15:30;;;;;;;7.10;2.45;;;;;;;;;;5075899;28;20261;-48
2022/07/20 14:17:57;;;;;;;6.35;2.67;;;;;;;;;;5076663;28;20239;-47
2022/07/20 14:20:24;;;;;;;7.55;2.88;;;;;;;;;;5076814;28;20227;-55
2022/07/20 14:23:07;;;;;;;6.20;3.20;;;;;;;;;;5076764;28;20552;-48
2022/07/20 14:25:36;;;;;;;4.35;2.58;;;;;;;;;;5076582;28;20250;-48
2022/07/20 14:28:03;;;;;;;9.82;3.15;;;;;;;;;;5076875;28;20219;-48
2022/07/20 14:30:30;;;;;;;7.35;3.85;;;;;;;;;;5076407;28;20230;-51
2022/07/20 14:32:59;;;;;;;5.13;3.22;;;;;;;;;;5076536;28;20235;-51
2022/07/20 14:35:27;;;;;;;10.75;3.00;;;;;;;;;;5076469;28;20242;-48
2022/07/20 14:37:54;;;;;;;6.40;3.22;;;;;;;;;;5075728;28;20223;-46
2022/07/20 14:40:22;;;;;;;6.85;2.78;;;;;;;;;;5076264;28;20273;-50
2022/07/20 14:42:48;;;;;;;6.03;3.00;;;;;;;;;;5075246;28;20227;-48
2022/07/20 14:45:16;;;;;;;9.07;3.10;;;;;;;;;;5075408;28;20239;-48
2022/07/20 14:47:43;;;;;;;7.35;2.72;;;;;;;;;;5075925;28;20219;-49
2022/07/20 14:50:10;;;;;;;4.85;2.70;;;;;;;;;;5077889;28;20223;-48
2022/07/20 14:52:37;;;;;;;7.18;3.08;;;;;;;;;;5093562;28;20218;-47
2022/07/20 14:55:06;;;;;;;6.80;2.88;;;;;;;;;;5097727;28;20226;-52
2022/07/20 14:57:33;;;;;;;4.10;3.03;;;;;;;;;;5097439;28;20237;-53